Time;durP1;ratioP1;P1;durP2;ratioP2;P2;SDS_P1;SDS_P2;PMS_P1;PMS_P2;Temp;Humidity;BMP_temperature;BMP_pressure;BME280_temperature;BME280_humidity;BME280_pressure;Samples;Min_cycle;Max_cycle;Signal;HPM_P1;HPM_P2
2021/11/08 00:02:18;;;;;;;16.57;9.10;;;;;;;6.86;79.80;98879.12;3914628;89;21073;-84
2021/11/08 00:08:21;;;;;;;14.97;8.07;;;;;;;6.79;80.01;98880.89;3928113;89;21084;-83
2021/11/08 00:14:24;;;;;;;13.03;7.12;;;;;;;6.69;80.27;98884.16;3920426;89;21099;-83
2021/11/08 00:20:32;;;;;;;9.95;5.87;;;;;;;6.63;80.30;98887.70;3924649;89;21135;-83
2021/11/08 00:26:33;;;;;;;11.60;6.12;;;;;;;6.58;80.36;98886.59;3913115;89;21116;-83
2021/11/08 00:32:35;;;;;;;11.33;5.67;;;;;;;6.60;80.70;98894.41;3903791;89;21039;-83
2021/11/08 00:38:38;;;;;;;12.20;5.60;;;;;;;6.60;80.75;98910.72;3933568;88;21553;-83
2021/11/08 00:51:36;;;;;;;10.58;5.60;;;;;;;6.67;80.87;98903.52;3965851;88;21096;-83
2021/11/08 00:57:37;;;;;;;10.03;5.80;;;;;;;6.68;81.18;98920.64;3945019;88;21062;-83
2021/11/08 01:03:44;;;;;;;10.65;5.80;;;;;;;6.69;81.20;98933.89;3955439;88;21072;-83
2021/11/08 01:09:47;;;;;;;11.00;6.47;;;;;;;6.72;81.08;98937.86;3968444;88;21068;-83
2021/11/08 01:15:48;;;;;;;10.53;6.22;;;;;;;6.74;81.05;98941.00;3963706;88;21584;-83
2021/11/08 01:21:50;;;;;;;11.22;6.25;;;;;;;6.70;81.11;98943.66;3969763;88;21082;-83
2021/11/08 01:27:54;;;;;;;9.08;5.83;;;;;;;6.66;81.15;98953.63;3972381;88;21078;-83
2021/11/08 01:33:56;;;;;;;7.90;5.45;;;;;;;6.65;81.18;98952.62;3963983;88;21085;-83
2021/11/08 01:40:03;;;;;;;11.00;6.03;;;;;;;6.63;81.17;98957.05;3987801;87;21179;-83
2021/11/08 01:46:05;;;;;;;8.83;5.12;;;;;;;6.54;81.32;98970.59;3983596;87;21104;-85
2021/11/08 01:52:12;;;;;;;12.33;6.30;;;;;;;6.56;81.28;98980.00;3964139;88;21077;-83
2021/11/08 01:58:13;;;;;;;;;;;;;;;6.48;81.60;98976.08;3960158;88;21850;-83
2021/11/08 02:04:14;;;;;;;10.63;5.83;;;;;;;6.45;81.57;98980.85;3955765;88;20165;-83
2021/11/08 02:10:17;;;;;;;9.18;5.78;;;;;;;6.32;81.58;98979.56;3947682;88;21098;-83
2021/11/08 02:16:18;;;;;;;10.18;5.20;;;;;;;6.23;81.73;98983.56;3961122;88;21072;-84
2021/11/08 02:22:20;;;;;;;7.70;4.55;;;;;;;6.19;81.88;98989.45;3971451;88;21106;-84
2021/11/08 02:28:23;;;;;;;9.03;4.83;;;;;;;6.10;82.13;98993.69;3998784;87;21029;-84
2021/11/08 02:34:25;;;;;;;7.45;4.55;;;;;;;6.07;82.51;98994.38;3961555;88;21070;-83
2021/11/08 02:40:29;;;;;;;7.80;4.65;;;;;;;6.10;82.70;98996.97;3980220;88;21084;-82
2021/11/08 02:46:32;;;;;;;10.55;4.78;;;;;;;6.12;82.86;98987.32;3981617;89;21025;-84
2021/11/08 02:52:33;;;;;;;8.88;5.80;;;;;;;6.16;82.93;98993.66;3984037;88;21025;-83
2021/11/08 02:58:39;;;;;;;9.45;6.05;;;;;;;6.19;83.22;98995.69;3971025;89;21044;-84
2021/11/08 03:04:48;;;;;;;9.85;5.85;;;;;;;6.25;83.19;99017.97;4013857;87;21156;-83
2021/11/08 03:10:55;;;;;;;9.50;6.17;;;;;;;6.33;83.18;99019.75;3985841;87;21353;-83
2021/11/08 03:17:00;;;;;;;10.38;6.10;;;;;;;6.35;82.96;99019.65;3995225;88;21085;-83
2021/11/08 03:23:06;;;;;;;8.55;5.83;;;;;;;6.33;82.99;99029.27;3867236;90;21053;-83
2021/11/08 03:29:10;;;;;;;8.27;6.03;;;;;;;6.27;83.05;99019.22;3974348;89;21049;-83
2021/11/08 03:35:13;;;;;;;9.63;5.10;;;;;;;6.24;82.94;99034.87;3980244;88;21043;-82
2021/11/08 03:41:14;;;;;;;12.15;6.10;;;;;;;6.23;83.09;99031.13;3950391;88;21082;-83
2021/11/08 03:47:18;;;;;;;12.55;6.65;;;;;;;6.22;83.36;99029.53;3947521;89;21985;-83
2021/11/08 03:53:21;;;;;;;8.75;6.53;;;;;;;6.27;83.59;99040.17;3886169;90;21129;-83
2021/11/08 03:59:23;;;;;;;14.23;8.18;;;;;;;6.34;83.54;99034.95;3890618;90;21055;-83
2021/11/08 04:05:29;;;;;;;11.55;6.65;;;;;;;6.39;83.69;99046.91;3864607;86;27853;-83
2021/11/08 04:11:32;;;;;;;10.35;7.22;;;;;;;6.48;83.66;99046.22;3848486;91;21201;-83
2021/11/08 04:18:26;;;;;;;11.38;7.90;;;;;;;6.54;83.73;99053.55;3879156;90;21585;-83
2021/11/08 04:24:29;;;;;;;11.25;7.95;;;;;;;6.60;83.54;99042.63;3920598;90;21035;-83
2021/11/08 04:30:42;;;;;;;13.50;8.75;;;;;;;6.60;83.49;99038.55;3921569;90;21201;-83
2021/11/08 04:49:26;;;;;;;12.00;6.35;;;;;;;6.59;83.63;99041.86;3970412;87;22163;-83
2021/11/08 04:55:33;;;;;;;10.15;5.90;;;;;;;6.56;83.44;99036.32;3935927;88;21074;-83
2021/11/08 05:33:05;;;;;;;18.23;8.23;;;;;;;5.89;83.17;99073.21;3938323;89;21110;-84
2021/11/08 05:39:10;;;;;;;11.15;8.10;;;;;;;5.67;83.18;99074.24;3924922;89;21582;-83
2021/11/08 05:45:15;;;;;;;18.57;9.78;;;;;;;5.54;83.29;99084.88;3916219;89;21118;-83
2021/11/08 05:51:16;;;;;;;15.68;7.60;;;;;;;5.44;83.43;99101.04;3925140;89;21674;-82
2021/11/08 06:48:50;;;;;;;19.48;8.48;;;;;;;5.81;84.28;99157.53;3962681;87;21048;-82
2021/11/08 06:54:14;;;;;;;14.47;8.88;;;;;;;5.93;84.10;99165.70;3952101;89;21088;-83
2021/11/08 07:00:21;;;;;;;12.68;8.63;;;;;;;6.06;84.04;99164.58;4021711;87;21127;-83
2021/11/08 07:06:23;;;;;;;23.90;9.40;;;;;;;6.24;83.91;99168.63;4020284;87;21102;-83
2021/11/08 07:12:24;;;;;;;14.55;9.05;;;;;;;6.35;83.80;99181.98;4024078;87;21027;-83
2021/11/08 07:18:26;;;;;;;17.98;9.85;;;;;;;6.58;83.77;99189.09;4037103;87;21536;-83
2021/11/08 07:24:27;;;;;;;14.90;9.18;;;;;;;7.01;83.67;99188.60;4019601;87;21660;-83
2021/11/08 07:30:30;;;;;;;15.75;9.60;;;;;;;7.49;83.14;99191.08;4018309;87;21518;-83
2021/11/08 07:36:39;;;;;;;20.48;10.65;;;;;;;7.95;83.04;99208.01;4009901;86;21077;-83
2021/11/08 07:42:42;;;;;;;14.87;8.80;;;;;;;8.31;81.83;99221.98;4035913;86;21659;-83
2021/11/08 07:48:44;;;;;;;16.80;8.58;;;;;;;8.49;81.69;99234.08;4049150;86;21098;-83
2021/11/08 07:54:45;;;;;;;16.27;8.55;;;;;;;8.85;81.35;99231.55;4040469;85;21047;-84
2021/11/08 08:00:48;;;;;;;15.68;7.00;;;;;;;9.83;81.62;99238.19;4051513;86;21143;-83
2021/11/08 08:06:50;;;;;;;14.85;6.55;;;;;;;10.87;80.82;99240.46;3969057;88;21069;-83
2021/11/08 08:12:52;;;;;;;10.18;5.70;;;;;;;10.66;78.82;99254.44;4051170;86;21106;-83
2021/11/08 08:18:54;;;;;;;9.83;4.90;;;;;;;10.27;78.60;99259.88;4053601;85;21088;-83
2021/11/08 08:24:56;;;;;;;9.18;4.80;;;;;;;9.99;78.19;99271.69;4053596;86;21094;-83
2021/11/08 08:30:58;;;;;;;17.67;6.55;;;;;;;9.77;77.92;99280.66;4060804;86;21022;-82
2021/11/08 08:36:59;;;;;;;13.40;5.67;;;;;;;9.63;78.01;99292.12;4053501;86;21093;-82
2021/11/08 08:43:00;;;;;;;17.12;6.08;;;;;;;9.46;77.57;99290.60;4057835;85;21560;-84
2021/11/08 08:49:02;;;;;;;11.75;5.97;;;;;;;9.50;77.63;99296.14;4063626;86;21085;-83
2021/11/08 08:55:05;;;;;;;11.78;5.15;;;;;;;9.50;77.22;99304.34;4046897;86;21512;-83
2021/11/08 09:01:19;;;;;;;18.40;5.47;;;;;;;9.54;76.87;99319.66;4058977;85;21091;-81
2021/11/08 09:07:20;;;;;;;11.25;4.95;;;;;;;9.54;76.41;99315.55;4047956;86;21051;-84
2021/11/08 09:13:36;;;;;;;12.00;4.55;;;;;;;9.54;76.37;99321.59;4058995;85;21142;-83
2021/11/08 09:19:37;;;;;;;8.88;4.67;;;;;;;9.58;75.77;99317.77;4055230;85;21047;-85
2021/11/08 09:25:40;;;;;;;14.78;4.80;;;;;;;9.60;75.56;99317.41;4058571;86;21055;-84
2021/11/08 09:31:45;;;;;;;10.85;4.05;;;;;;;9.49;74.96;99332.80;4047188;86;21068;-83
2021/11/08 09:37:48;;;;;;;12.58;3.80;;;;;;;9.42;73.69;99330.73;4072859;86;21756;-84
2021/11/08 09:43:54;;;;;;;10.90;3.80;;;;;;;9.35;73.85;99333.31;4095557;86;21015;-83
2021/11/08 09:50:03;;;;;;;8.73;4.37;;;;;;;9.45;73.19;99346.41;4094887;85;21038;-83
2021/11/08 09:56:06;;;;;;;9.45;3.47;;;;;;;9.55;73.03;99348.56;4087733;86;21103;-84
2021/11/08 10:02:14;;;;;;;9.23;3.40;;;;;;;9.60;71.13;99346.70;4079739;86;21120;-83
2021/11/08 10:08:20;;;;;;;8.08;3.17;;;;;;;9.51;71.82;99337.34;4075156;86;21052;-81
2021/11/08 10:14:23;;;;;;;8.13;2.40;;;;;;;9.54;71.60;99342.09;4092016;86;21034;-81
2021/11/08 10:20:41;;;;;;;7.92;3.55;;;;;;;9.60;71.68;99336.55;4150580;83;36013;-81
2021/11/08 10:26:43;;;;;;;7.83;2.25;;;;;;;9.67;70.90;99324.97;4184437;84;21056;-80
2021/11/08 10:33:18;;;;;;;8.78;2.50;;;;;;;9.86;69.76;99318.92;4179698;84;21043;-81
2021/11/08 10:39:21;;;;;;;5.55;2.10;;;;;;;10.08;69.58;99317.39;4161382;84;21045;-82
2021/11/08 10:45:23;;;;;;;8.25;4.10;;;;;;;10.20;68.41;99321.31;4098781;85;21046;-81
2021/11/08 10:51:29;;;;;;;6.65;2.10;;;;;;;10.47;68.81;99313.38;4100043;85;21118;-80
2021/11/08 10:57:32;;;;;;;15.65;3.42;;;;;;;10.64;67.46;99310.13;4109291;85;21593;-80
2021/11/08 11:03:35;;;;;;;6.35;2.17;;;;;;;10.66;67.71;99309.20;4096848;85;21014;-80
2021/11/08 11:09:38;;;;;;;6.10;2.58;;;;;;;10.66;66.51;99313.30;4098029;85;21148;-81
2021/11/08 11:15:41;;;;;;;8.78;3.25;;;;;;;10.70;66.43;99312.77;4106182;85;21069;-81
2021/11/08 11:22:00;;;;;;;8.30;2.60;;;;;;;10.78;66.13;99311.72;4095444;85;21030;-81
2021/11/08 11:28:05;;;;;;;9.05;2.00;;;;;;;10.86;65.85;99316.95;4107186;85;21026;-81
2021/11/08 11:34:16;;;;;;;7.30;4.03;;;;;;;10.84;65.33;99319.83;4116373;85;21057;-80
2021/11/08 11:40:18;;;;;;;6.05;2.45;;;;;;;10.88;64.74;99320.69;4101662;85;21043;-81
2021/11/08 11:46:30;;;;;;;7.75;2.55;;;;;;;10.79;64.20;99315.45;4136208;85;21027;-81
2021/11/08 11:52:38;;;;;;;6.05;2.62;;;;;;;10.80;63.87;99315.69;4147652;85;21031;-83
2021/11/08 11:58:40;;;;;;;10.20;3.10;;;;;;;10.72;63.44;99313.20;4141905;85;21032;-82
2021/11/08 12:04:41;;;;;;;9.25;2.37;;;;;;;10.67;63.64;99309.39;4144168;85;21091;-83
2021/11/08 12:10:47;;;;;;;7.95;2.52;;;;;;;10.56;63.51;99308.44;4153009;85;21579;-83
2021/11/08 12:16:54;;;;;;;4.28;1.95;;;;;;;10.61;63.70;99306.77;4148591;85;21535;-82
2021/11/08 12:22:57;;;;;;;4.40;1.52;;;;;;;10.58;63.17;99316.52;4076762;86;21068;-83
2021/11/08 12:29:20;;;;;;;5.40;1.60;;;;;;;10.54;63.20;99308.80;4078392;86;21185;-82
2021/11/08 12:35:38;;;;;;;6.00;1.90;;;;;;;10.53;63.09;99308.60;4007635;88;21134;-84
2021/11/08 12:41:48;;;;;;;3.52;1.42;;;;;;;10.41;63.18;99312.91;3983820;88;21710;-82
2021/11/08 12:48:12;;;;;;;5.53;1.40;;;;;;;10.29;63.33;99307.60;4073589;86;21423;-82
2021/11/08 12:54:14;;;;;;;4.17;1.55;;;;;;;10.29;63.43;99311.70;4069315;86;21556;-83
2021/11/08 13:00:23;;;;;;;5.08;1.80;;;;;;;10.24;63.11;99307.91;4072495;86;21126;-81
2021/11/08 13:06:32;;;;;;;5.95;2.00;;;;;;;10.07;62.91;99311.69;4068559;86;21038;-82
2021/11/08 13:12:38;;;;;;;8.38;2.50;;;;;;;9.98;63.54;99305.64;4075948;86;21046;-83
2021/11/08 13:18:45;;;;;;;8.50;3.80;;;;;;;9.97;63.57;99315.00;4067448;85;21027;-84
2021/11/08 13:25:03;;;;;;;;;;;;;;;9.91;63.71;99315.89;4084522;85;21079;-82
2021/11/08 13:31:11;;;;;;;8.98;3.80;;;;;;;9.89;64.13;99325.03;4081985;86;20110;-82
2021/11/08 13:37:14;;;;;;;10.75;3.40;;;;;;;9.86;64.16;99329.86;4079145;85;21047;-82
2021/11/08 13:43:22;;;;;;;10.82;4.20;;;;;;;9.80;64.02;99326.41;4088582;85;21093;-82
2021/11/08 13:49:26;;;;;;;10.23;3.55;;;;;;;9.73;64.26;99331.72;4095268;85;21074;-82
2021/11/08 13:55:27;;;;;;;11.53;4.20;;;;;;;9.65;64.27;99340.95;4086706;86;21159;-83
2021/11/08 14:01:35;;;;;;;10.88;4.40;;;;;;;9.62;64.65;99341.65;4104198;86;21078;-83
2021/11/08 14:07:37;;;;;;;11.50;5.85;;;;;;;9.59;64.77;99345.91;4076588;86;21051;-82
2021/11/08 14:13:43;;;;;;;19.27;9.63;;;;;;;9.59;64.73;99351.38;4085386;86;21855;-82
2021/11/08 14:19:47;;;;;;;17.70;7.80;;;;;;;9.55;64.83;99349.16;4087762;86;21098;-83
2021/11/08 14:25:48;;;;;;;14.50;5.05;;;;;;;9.49;65.05;99352.73;4079054;86;21118;-83
2021/11/08 14:32:00;;;;;;;16.37;5.45;;;;;;;9.43;65.29;99350.64;4071208;86;21057;-83
2021/11/08 14:38:03;;;;;;;12.70;5.70;;;;;;;9.37;65.57;99363.80;4087958;86;21110;-83
2021/11/08 14:44:10;;;;;;;14.80;5.60;;;;;;;9.30;65.82;99371.06;4080819;86;21078;-84
2021/11/08 14:50:20;;;;;;;18.67;6.50;;;;;;;9.25;66.00;99377.59;4085289;85;21158;-82
2021/11/08 14:56:26;;;;;;;17.92;6.45;;;;;;;9.19;66.14;99375.49;4035115;86;21221;-82
2021/11/08 15:02:27;;;;;;;18.87;6.65;;;;;;;9.12;66.30;99386.25;4084956;86;21030;-83
2021/11/08 15:08:29;;;;;;;16.30;7.00;;;;;;;9.06;66.61;99389.84;4077070;85;21038;-82
2021/11/08 15:14:31;;;;;;;17.82;6.60;;;;;;;9.01;66.73;99390.11;4066406;85;21551;-82
2021/11/08 15:20:41;;;;;;;15.18;6.92;;;;;;;8.99;66.97;99396.48;4082489;86;22210;-81
2021/11/08 15:26:49;;;;;;;16.12;6.33;;;;;;;8.90;67.16;99406.00;4081418;86;21138;-82
2021/11/08 15:32:50;;;;;;;13.68;6.65;;;;;;;8.85;67.56;99410.36;4077638;86;21286;-82
2021/11/08 15:38:55;;;;;;;16.35;7.03;;;;;;;8.79;67.70;99409.85;4090742;85;21074;-82
2021/11/08 15:44:57;;;;;;;18.27;7.17;;;;;;;8.75;68.04;99417.17;4127160;85;21627;-81
2021/11/08 15:51:00;;;;;;;18.70;7.33;;;;;;;8.72;68.52;99419.21;4140074;85;21086;-81
2021/11/08 15:57:03;;;;;;;16.32;7.25;;;;;;;8.71;68.70;99420.93;4143134;85;21031;-82
2021/11/08 16:03:06;;;;;;;18.45;7.78;;;;;;;8.67;68.99;99427.69;4125991;85;21015;-84
2021/11/08 16:09:10;;;;;;;18.70;8.48;;;;;;;8.64;69.00;99430.32;4123677;85;20996;-82
2021/11/08 16:15:12;;;;;;;19.87;8.53;;;;;;;8.62;69.41;99432.59;4131582;85;21354;-81
2021/11/08 16:21:17;;;;;;;19.05;8.50;;;;;;;8.58;69.58;99439.32;4123125;85;21012;-84
2021/11/08 16:27:18;;;;;;;22.07;10.30;;;;;;;8.57;69.71;99440.48;4134486;85;21063;-82
2021/11/08 16:33:43;;;;;;;24.32;10.93;;;;;;;8.55;70.02;99453.67;4118516;85;21639;-81
2021/11/08 16:39:45;;;;;;;17.62;9.68;;;;;;;8.51;70.56;99477.91;4127860;84;21042;-82
2021/11/08 16:46:02;;;;;;;22.82;11.65;;;;;;;8.37;71.18;99482.42;4141639;85;21020;-82
2021/11/08 16:52:06;;;;;;;19.57;9.55;;;;;;;8.20;72.34;99485.43;4126631;84;21118;-82
2021/11/08 16:58:11;;;;;;;24.82;11.75;;;;;;;8.09;72.71;99488.42;4126905;85;21026;-83
2021/11/08 17:04:14;;;;;;;33.45;14.83;;;;;;;8.00;72.99;99495.38;4121972;85;21022;-82
2021/11/08 17:16:23;;;;;;;25.10;11.80;;;;;;;7.83;75.89;99509.28;4141896;85;21094;-83
2021/11/08 17:22:24;;;;;;;27.85;13.40;;;;;;;7.64;76.54;99506.94;4149213;85;20999;-83
2021/11/08 17:28:27;;;;;;;33.53;16.35;;;;;;;7.49;78.48;99508.98;4127028;84;21395;-82
2021/11/08 17:34:29;;;;;;;30.62;17.00;;;;;;;7.38;77.53;99525.56;4128403;85;21043;-82
2021/11/08 17:40:33;;;;;;;36.80;18.50;;;;;;;7.43;77.71;99534.88;4126738;85;21105;-83
2021/11/08 17:46:35;;;;;;;34.63;17.17;;;;;;;7.46;78.05;99528.18;4096416;85;21049;-83
2021/11/08 17:52:38;;;;;;;42.15;17.82;;;;;;;7.48;78.20;99539.55;4119422;83;30045;-83
2021/11/08 17:58:39;;;;;;;32.15;16.97;;;;;;;7.51;78.36;99542.94;4184028;83;21014;-82
2021/11/08 18:04:42;;;;;;;33.53;17.77;;;;;;;7.48;78.86;99553.16;4171361;83;21018;-82
2021/11/08 18:10:49;;;;;;;34.53;17.45;;;;;;;7.52;79.05;99569.04;4188985;85;21050;-82
2021/11/08 18:16:54;;;;;;;36.13;16.10;;;;;;;7.49;79.16;99568.92;4190757;83;21113;-82
2021/11/08 18:29:15;;;;;;;33.15;17.65;;;;;;;7.48;79.54;99561.33;4180746;83;21038;-82
2021/11/08 18:35:18;;;;;;;32.83;16.65;;;;;;;7.49;79.68;99572.45;4181897;83;21054;-82
2021/11/08 18:41:43;;;;;;;33.13;19.20;;;;;;;7.39;79.89;99570.75;4069715;81;9999678;-82
2021/11/08 18:48:01;;;;;;;32.53;18.40;;;;;;;7.35;80.39;99579.36;4180314;83;20971;-82
2021/11/08 18:54:03;;;;;;;48.05;22.73;;;;;;;7.37;80.47;99578.45;4176599;83;21609;-82
2021/11/08 19:00:11;;;;;;;40.63;21.95;;;;;;;7.36;80.92;99585.82;4150980;84;20991;-82
2021/11/08 19:12:25;;;;;;;39.90;21.55;;;;;;;7.46;81.10;99595.48;4146011;83;21773;-82
2021/11/08 19:18:26;;;;;;;52.43;24.13;;;;;;;7.47;81.27;99598.45;4182157;83;21015;-81
2021/11/08 19:24:28;;;;;;;46.80;26.20;;;;;;;7.49;81.22;99607.86;4182074;83;21010;-82
2021/11/08 19:30:37;;;;;;;50.95;24.87;;;;;;;7.45;81.45;99604.80;4175940;83;21031;-82
2021/11/08 19:43:06;;;;;;;59.65;29.32;;;;;;;7.44;81.73;99620.34;4175203;83;21038;-83
2021/11/08 19:49:09;;;;;;;52.43;25.77;;;;;;;7.41;82.27;99629.19;4169179;84;21022;-82
2021/11/08 19:55:24;;;;;;;48.33;24.75;;;;;;;7.36;82.31;99637.57;4168841;84;21633;-83
2021/11/08 20:01:27;;;;;;;55.03;26.25;;;;;;;7.36;82.27;99644.97;4119199;85;21131;-82
2021/11/08 20:08:04;;;;;;;49.58;25.77;;;;;;;7.32;82.62;99648.13;4126185;85;21000;-82
2021/11/08 20:14:24;;;;;;;39.17;20.10;;;;;;;7.32;82.80;99661.73;4130237;85;21023;-82
2021/11/08 20:20:45;;;;;;;49.70;25.92;;;;;;;7.34;83.14;99663.01;4132094;84;21040;-82
2021/11/08 20:26:48;;;;;;;51.23;26.55;;;;;;;7.30;83.23;99674.33;4165004;85;21057;-82
2021/11/08 20:39:27;;;;;;;46.08;25.30;;;;;;;7.27;83.59;99670.92;4206597;84;21010;-82
2021/11/08 20:45:41;;;;;;;43.83;25.43;;;;;;;7.24;83.92;99677.05;4176964;83;21389;-83
2021/11/08 20:51:48;;;;;;;47.98;26.65;;;;;;;7.22;83.97;99678.52;4165737;83;21001;-82
2021/11/08 21:04:10;;;;;;;44.90;25.85;;;;;;;7.23;84.52;99696.44;4172538;83;21073;-82
2021/11/08 21:16:08;;;;;;;50.28;26.68;;;;;;;7.22;86.02;99691.55;4176480;83;21108;-82
2021/11/08 21:22:10;;;;;;;58.10;30.50;;;;;;;7.20;85.19;99697.12;4183793;83;21017;-82
2021/11/08 21:28:19;;;;;;;48.08;25.72;;;;;;;7.21;85.18;99694.05;4178917;83;21034;-83
2021/11/08 21:40:44;;;;;;;50.40;27.85;;;;;;;7.23;85.55;99704.05;4179214;83;20987;-82
2021/11/08 21:46:48;;;;;;;51.05;27.82;;;;;;;7.25;85.64;99707.22;4228832;82;21550;-82
2021/11/08 21:52:50;;;;;;;51.23;27.75;;;;;;;7.26;85.73;99714.27;4241496;82;21026;-82
2021/11/08 21:59:18;;;;;;;55.38;29.60;;;;;;;7.26;85.79;99713.47;4238058;82;21073;-82
2021/11/08 22:05:20;;;;;;;58.08;31.40;;;;;;;7.24;85.76;99714.36;4235950;82;21498;-82
2021/11/08 22:11:23;;;;;;;50.83;31.23;;;;;;;7.23;85.89;99716.87;4238704;82;21034;-82
2021/11/08 22:17:25;;;;;;;55.92;31.35;;;;;;;7.22;85.85;99729.67;4242852;82;21082;-82
2021/11/08 22:23:26;;;;;;;58.05;32.80;;;;;;;7.20;86.02;99725.16;4240159;82;20998;-82
2021/11/08 22:29:29;;;;;;;54.93;30.97;;;;;;;7.19;86.14;99727.63;4241810;82;21083;-83
2021/11/08 22:35:31;;;;;;;57.83;32.08;;;;;;;7.18;86.31;99735.58;4243808;82;21026;-83
2021/11/08 22:41:32;;;;;;;56.55;30.75;;;;;;;7.18;86.52;99733.41;4250865;82;21002;-82
2021/11/08 22:47:33;;;;;;;56.15;30.52;;;;;;;7.15;86.81;99738.97;4251379;82;21936;-82
2021/11/08 22:53:35;;;;;;;52.78;31.27;;;;;;;7.16;87.00;99747.91;4233388;82;21075;-82
2021/11/08 22:59:36;;;;;;;57.23;33.35;;;;;;;7.15;87.00;99750.41;4248720;82;20998;-83
2021/11/08 23:05:38;;;;;;;60.28;31.70;;;;;;;7.14;87.21;99748.83;4245527;81;21771;-82
2021/11/08 23:11:40;;;;;;;52.60;31.50;;;;;;;7.13;87.36;99760.83;4245041;82;21081;-83
2021/11/08 23:17:42;;;;;;;55.95;30.52;;;;;;;7.12;87.63;99757.89;4238414;82;21565;-83
2021/11/08 23:23:46;;;;;;;55.10;30.35;;;;;;;7.12;87.79;99766.86;4241106;82;21059;-84
2021/11/08 23:29:47;;;;;;;54.15;29.02;;;;;;;7.11;87.98;99767.20;4247100;82;21093;-84
2021/11/08 23:42:33;;;;;;;52.88;28.83;;;;;;;7.05;88.32;99768.50;4241873;82;21045;-83
2021/11/08 23:48:36;;;;;;;55.50;30.88;;;;;;;6.98;88.49;99770.42;4246020;81;21043;-83
2021/11/08 23:54:39;;;;;;;55.10;29.92;;;;;;;7.01;88.54;99769.76;4245119;82;21126;-84
